Colmenarejo, Spain
Current Conditions -  °F | °C
As of 11:00 AM on Friday 21 Nov 2014 (Local Time) from LEVS Reporting Station
Clear Clear  
Wind Chill: 55°   Ceiling: Unl
Heat Index: 55°   Visibility: 6mi
Dew Point: 46°   Wind: 2mph
Humidity: 72%   Direction: NA
Pressure: 30.12"   Gusts: NA
Location:  40.56°N, 4.02°W
Report Text: LEVS 211000Z VRB02KT CAVOK 13/08 Q1020
Loading
Personal Weather Stations






























Interactive Weather Map New forecast layout! Learn more

10-Day Weather Forecast

Advertisements
Track Severe Weather on mobile